Time;durP1;ratioP1;P1;durP2;ratioP2;P2;SDS_P1;SDS_P2;PMS_P1;PMS_P2;Temp;Humidity;BMP_temperature;BMP_pressure;BME280_temperature;BME280_humidity;BME280_pressure;Samples;Min_cycle;Max_cycle;Signal;HPM_P1;HPM_P2
2023/09/07 00:00:13;;;;;;;14.00;7.43;;;;;;;-145.18;100.00;46660.41;5019718;28;20042;-60
2023/09/07 00:02:38;;;;;;;8.47;6.90;;;;;;;-145.18;100.00;46660.41;5023198;28;20033;-60
2023/09/07 00:05:06;;;;;;;12.17;8.50;;;;;;;-145.18;100.00;46660.41;5034466;28;20489;-61
2023/09/07 00:07:31;;;;;;;12.97;7.80;;;;;;;-145.18;100.00;46660.41;5030674;28;20033;-60
2023/09/07 00:09:56;;;;;;;12.00;7.70;;;;;;;-145.18;100.00;46660.41;5021765;28;20544;-60
2023/09/07 00:12:22;;;;;;;12.17;8.40;;;;;;;-145.18;100.00;46660.41;5031218;28;20498;-60
2023/09/07 00:14:47;;;;;;;9.83;7.33;;;;;;;-145.18;100.00;46660.41;5022225;28;20030;-61
2023/09/07 00:17:13;;;;;;;16.23;8.03;;;;;;;-145.18;100.00;46660.41;5030921;28;20412;-60
2023/09/07 00:19:38;;;;;;;10.60;7.40;;;;;;;-145.18;100.00;46660.41;5022626;28;20391;-60
2023/09/07 00:22:04;;;;;;;10.53;9.00;;;;;;;-145.18;100.00;46660.41;5034055;28;20037;-60
2023/09/07 00:24:31;;;;;;;14.33;8.07;;;;;;;-145.18;100.00;46660.41;5021520;28;20450;-60
2023/09/07 00:26:57;;;;;;;11.50;8.53;;;;;;;-145.18;100.00;46660.41;5027471;28;20057;-60
2023/09/07 00:29:23;;;;;;;11.70;8.23;;;;;;;-145.18;100.00;46660.41;5027827;28;20109;-61
2023/09/07 00:31:48;;;;;;;11.80;9.17;;;;;;;-145.18;100.00;46660.41;5033279;28;20116;-60
2023/09/07 00:34:14;;;;;;;10.33;7.83;;;;;;;-145.18;100.00;46656.50;5027253;28;20389;-60
2023/09/07 00:36:39;;;;;;;11.73;9.27;;;;;;;-145.18;100.00;46658.44;5023926;28;20033;-61
2023/09/07 00:39:05;;;;;;;13.30;10.30;;;;;;;-145.18;100.00;46660.41;5028399;28;20466;-61
2023/09/07 00:41:30;;;;;;;14.17;10.10;;;;;;;-145.18;100.00;46660.41;5028851;28;20033;-61
2023/09/07 00:43:56;;;;;;;14.27;9.43;;;;;;;-145.18;100.00;46658.44;5020783;28;20030;-60
2023/09/07 00:46:21;;;;;;;13.20;10.10;;;;;;;-145.18;100.00;46658.44;5031565;28;20037;-61
2023/09/07 00:48:48;;;;;;;14.50;9.93;;;;;;;-145.18;100.00;46660.41;5026163;28;20452;-65
2023/09/07 00:51:13;;;;;;;16.40;9.23;;;;;;;-145.18;100.00;46654.53;5027637;28;20065;-65
2023/09/07 00:53:39;;;;;;;13.07;10.10;;;;;;;-145.18;100.00;46650.63;5025662;28;20052;-65
2023/09/07 00:56:06;;;;;;;14.07;11.23;;;;;;;-145.18;100.00;46658.44;5021890;28;20053;-65
2023/09/07 00:58:32;;;;;;;16.40;10.40;;;;;;;-145.18;100.00;46658.44;5022530;28;20109;-65
2023/09/07 01:00:59;;;;;;;13.50;10.30;;;;;;;-145.18;100.00;46660.41;5029800;28;20113;-65
2023/09/07 01:03:24;;;;;;;13.67;10.70;;;;;;;-145.18;100.00;46660.41;5030472;28;20021;-65
2023/09/07 01:05:55;;;;;;;16.03;10.80;;;;;;;-145.18;100.00;46658.44;5020222;28;20132;-65
2023/09/07 01:08:25;;;;;;;15.10;10.10;;;;;;;-145.18;100.00;46658.44;5031117;28;20503;-65
2023/09/07 01:10:51;;;;;;;13.87;9.73;;;;;;;-145.18;100.00;46652.59;5033768;28;20474;-65
2023/09/07 01:13:16;;;;;;;20.77;11.10;;;;;;;-145.18;100.00;46656.50;5018725;28;20053;-61
2023/09/07 01:15:42;;;;;;;13.73;10.77;;;;;;;-145.18;100.00;46658.44;5022671;28;20505;-60
2023/09/07 01:18:08;;;;;;;19.57;11.33;;;;;;;-145.18;100.00;46652.59;5026798;28;20038;-60
2023/09/07 01:20:35;;;;;;;16.50;11.57;;;;;;;-145.18;100.00;46656.50;5019484;28;20037;-60
2023/09/07 01:23:03;;;;;;;18.57;12.87;;;;;;;-145.18;100.00;46650.63;5026625;28;20055;-61
2023/09/07 01:25:28;;;;;;;19.23;11.60;;;;;;;-145.18;100.00;46652.59;5023134;28;20060;-60
2023/09/07 01:27:53;;;;;;;15.43;10.97;;;;;;;-145.18;100.00;46650.63;5029949;28;20038;-60
2023/09/07 01:30:20;;;;;;;14.33;11.30;;;;;;;-145.18;100.00;46642.81;5020069;28;20485;-60
2023/09/07 01:32:45;;;;;;;19.17;11.03;;;;;;;-145.18;100.00;46650.63;5039602;28;20033;-60
2023/09/07 01:35:12;;;;;;;16.17;12.23;;;;;;;-145.18;100.00;46642.81;5031888;28;20017;-60
2023/09/07 01:37:37;;;;;;;16.40;11.17;;;;;;;-145.18;100.00;46658.44;5032509;28;20038;-60
2023/09/07 01:40:07;;;;;;;15.17;10.83;;;;;;;-145.18;100.00;46658.44;5024445;28;20033;-60
2023/09/07 01:42:33;;;;;;;17.93;11.27;;;;;;;-145.18;100.00;46658.44;5031243;28;20037;-60
2023/09/07 01:44:58;;;;;;;17.77;11.70;;;;;;;-145.18;100.00;46656.50;5031776;28;20025;-60
2023/09/07 01:47:24;;;;;;;14.97;11.13;;;;;;;-145.18;100.00;46658.44;5030794;28;20072;-59
2023/09/07 01:49:49;;;;;;;16.47;11.87;;;;;;;-145.18;100.00;46658.44;5026465;28;20040;-60
2023/09/07 01:52:14;;;;;;;20.77;12.27;;;;;;;-145.18;100.00;46656.50;5015330;28;20042;-60
2023/09/07 01:54:40;;;;;;;15.50;11.53;;;;;;;-145.18;100.00;46656.50;5030517;28;20037;-61
2023/09/07 01:57:05;;;;;;;14.10;11.57;;;;;;;-145.18;100.00;46654.53;5030992;28;20535;-64
2023/09/07 01:59:30;;;;;;;16.83;12.23;;;;;;;-145.18;100.00;46654.53;5021151;28;20044;-65
2023/09/07 02:01:56;;;;;;;17.03;11.13;;;;;;;-145.18;100.00;46652.59;5025244;28;20105;-65
2023/09/07 02:04:21;;;;;;;18.67;12.53;;;;;;;-145.18;100.00;46654.53;5018668;28;20042;-65
2023/09/07 02:06:46;;;;;;;14.57;11.67;;;;;;;-145.18;100.00;46654.53;5019797;28;20037;-65
2023/09/07 02:09:12;;;;;;;20.67;13.20;;;;;;;-145.18;100.00;46658.44;5032154;28;20029;-65
2023/09/07 02:11:37;;;;;;;17.17;12.20;;;;;;;-145.18;100.00;46650.63;5031602;28;20040;-65
2023/09/07 02:14:03;;;;;;;16.17;12.57;;;;;;;-145.18;100.00;46650.63;5047181;28;20541;-65
2023/09/07 02:16:28;;;;;;;23.40;12.27;;;;;;;-145.18;100.00;46642.81;5029844;28;20545;-65
2023/09/07 02:19:04;;;;;;;16.27;12.13;;;;;;;-145.18;100.00;46652.59;5031525;28;20058;-65
2023/09/07 02:21:29;;;;;;;;;;;;;;;-145.18;100.00;46652.59;5032343;28;20040;-65
2023/09/07 02:23:54;;;;;;;15.15;10.65;;;;;;;-145.18;100.00;46650.63;5030762;28;19921;-65
2023/09/07 02:26:20;;;;;;;15.47;12.30;;;;;;;-145.18;100.00;46652.59;5031981;28;20034;-65
2023/09/07 02:28:45;;;;;;;17.17;12.30;;;;;;;-145.18;100.00;46656.50;5032666;28;20029;-65
2023/09/07 02:31:11;;;;;;;16.93;12.43;;;;;;;-145.18;100.00;46652.59;5031666;28;20072;-65
2023/09/07 02:33:36;;;;;;;16.87;12.50;;;;;;;-145.18;100.00;46652.59;5031249;28;20029;-65
2023/09/07 02:36:02;;;;;;;15.90;11.83;;;;;;;-145.18;100.00;46654.53;5030624;28;20072;-65
2023/09/07 02:38:28;;;;;;;14.63;11.80;;;;;;;-145.18;100.00;46656.50;5031564;28;20117;-65
2023/09/07 02:40:57;;;;;;;18.80;13.17;;;;;;;-145.18;100.00;46654.53;5030179;28;20069;-65
2023/09/07 02:43:23;;;;;;;14.23;10.93;;;;;;;-145.18;100.00;46654.53;5023244;28;20109;-65
2023/09/07 02:45:50;;;;;;;17.03;12.33;;;;;;;-145.18;100.00;46656.50;5012668;28;20108;-65
2023/09/07 02:48:15;;;;;;;17.13;12.20;;;;;;;-145.18;100.00;46656.50;5015397;28;20497;-65
2023/09/07 02:50:42;;;;;;;16.90;12.60;;;;;;;-145.18;100.00;46660.41;5016413;28;20035;-65
2023/09/07 02:53:08;;;;;;;16.07;11.67;;;;;;;-145.18;100.00;46652.59;5013065;28;20114;-65
2023/09/07 02:55:34;;;;;;;18.53;12.40;;;;;;;-145.18;100.00;46656.50;5026371;28;20104;-65
2023/09/07 02:58:02;;;;;;;17.90;12.20;;;;;;;-145.18;100.00;46656.50;5029523;28;20037;-65
2023/09/07 03:00:28;;;;;;;16.03;12.00;;;;;;;-145.18;100.00;46660.41;5030392;28;20379;-65
2023/09/07 03:02:53;;;;;;;20.03;12.50;;;;;;;-145.18;100.00;46660.41;5030629;28;20091;-65
2023/09/07 03:05:18;;;;;;;17.50;12.83;;;;;;;-145.18;100.00;46654.53;5028202;28;20030;-65
2023/09/07 03:07:45;;;;;;;19.60;12.80;;;;;;;-145.18;100.00;46656.50;5030523;28;20029;-61
2023/09/07 03:10:11;;;;;;;20.37;12.47;;;;;;;-145.18;100.00;46660.41;5029476;28;20520;-61
2023/09/07 03:12:36;;;;;;;19.30;12.30;;;;;;;-145.18;100.00;46656.50;5031549;28;20049;-61
2023/09/07 03:15:03;;;;;;;19.30;12.57;;;;;;;-145.18;100.00;46656.50;5029120;28;20041;-61
2023/09/07 03:17:29;;;;;;;18.20;12.83;;;;;;;-145.18;100.00;46656.50;5030876;28;20025;-61
2023/09/07 03:19:54;;;;;;;19.73;12.97;;;;;;;-145.18;100.00;46658.44;5030031;28;20596;-60
2023/09/07 03:22:20;;;;;;;17.70;12.73;;;;;;;-145.18;100.00;46656.50;5029365;28;20029;-61
2023/09/07 03:24:45;;;;;;;18.70;11.83;;;;;;;-145.18;100.00;46658.44;5027229;28;20025;-61
2023/09/07 03:27:11;;;;;;;16.13;11.40;;;;;;;-145.18;100.00;46658.44;5030369;28;20413;-61
2023/09/07 03:29:36;;;;;;;16.43;11.67;;;;;;;-145.18;100.00;46660.41;5018713;28;20065;-61
2023/09/07 03:32:02;;;;;;;17.27;12.13;;;;;;;-145.18;100.00;46660.41;5029709;28;20099;-61
2023/09/07 03:34:27;;;;;;;17.23;11.43;;;;;;;-145.18;100.00;46660.41;5031726;28;20083;-61
2023/09/07 03:36:53;;;;;;;18.70;11.83;;;;;;;-145.18;100.00;46658.44;5033777;28;20021;-61
2023/09/07 03:39:21;;;;;;;15.07;11.43;;;;;;;-145.18;100.00;46656.50;5034678;28;20032;-61
2023/09/07 03:41:46;;;;;;;16.03;10.50;;;;;;;-145.18;100.00;46656.50;5035384;28;20027;-61
2023/09/07 03:44:12;;;;;;;15.40;11.13;;;;;;;-145.18;100.00;46654.53;5025984;28;20112;-61
2023/09/07 03:46:37;;;;;;;16.30;11.83;;;;;;;-145.18;100.00;46654.53;5024424;28;20029;-60
2023/09/07 03:49:02;;;;;;;17.67;12.27;;;;;;;-145.18;100.00;46658.44;5029629;28;20570;-61
2023/09/07 03:51:28;;;;;;;16.60;11.63;;;;;;;-145.18;100.00;46660.41;5021614;28;20033;-61
2023/09/07 03:53:54;;;;;;;16.07;11.07;;;;;;;-145.18;100.00;46658.44;5034722;28;20037;-61
2023/09/07 03:56:19;;;;;;;17.63;11.87;;;;;;;-145.18;100.00;46658.44;5027212;28;20054;-61
2023/09/07 03:58:47;;;;;;;17.87;11.67;;;;;;;-145.18;100.00;46660.41;5026357;28;20084;-61
2023/09/07 04:01:13;;;;;;;16.93;12.03;;;;;;;-145.18;100.00;46658.44;5021811;28;20028;-60
2023/09/07 04:03:38;;;;;;;18.63;11.07;;;;;;;-145.18;100.00;46658.44;5020067;28;20618;-61
2023/09/07 04:06:04;;;;;;;15.23;11.83;;;;;;;-145.18;100.00;46654.53;5019547;28;20129;-61
2023/09/07 04:08:29;;;;;;;15.63;12.30;;;;;;;-145.18;100.00;46660.41;5033052;28;20037;-60
2023/09/07 04:10:55;;;;;;;18.13;11.93;;;;;;;-145.18;100.00;46654.53;5018405;28;20096;-61
2023/09/07 04:13:20;;;;;;;17.17;11.63;;;;;;;-145.18;100.00;46660.41;5030653;28;20061;-61
2023/09/07 04:15:46;;;;;;;18.40;12.10;;;;;;;-145.18;100.00;46656.50;5029820;28;20045;-61
2023/09/07 04:18:12;;;;;;;15.40;11.30;;;;;;;-145.18;100.00;46654.53;5028669;28;20042;-65
2023/09/07 04:20:39;;;;;;;14.37;11.77;;;;;;;-145.18;100.00;46656.50;5030137;28;20036;-65
2023/09/07 04:23:05;;;;;;;18.27;12.30;;;;;;;-145.18;100.00;46658.44;5028087;28;20037;-65
2023/09/07 04:25:31;;;;;;;17.63;11.93;;;;;;;-145.18;100.00;46658.44;5022127;28;20042;-65
2023/09/07 04:27:57;;;;;;;17.47;11.40;;;;;;;-145.18;100.00;46658.44;5034047;28;20766;-65
2023/09/07 04:30:22;;;;;;;18.03;12.60;;;;;;;-145.18;100.00;46654.53;5028732;28;20026;-65
2023/09/07 04:32:48;;;;;;;18.33;11.30;;;;;;;-145.18;100.00;46656.50;5032732;28;20076;-65
2023/09/07 04:35:13;;;;;;;21.70;12.70;;;;;;;-145.18;100.00;46654.53;5028305;28;20048;-65
2023/09/07 04:37:42;;;;;;;17.63;11.57;;;;;;;-145.18;100.00;46656.50;5033009;28;20561;-65
2023/09/07 04:40:07;;;;;;;21.23;11.57;;;;;;;-145.18;100.00;46656.50;5031143;28;20486;-65
2023/09/07 04:42:33;;;;;;;15.37;11.23;;;;;;;-145.18;100.00;46652.59;5029827;28;20064;-65
2023/09/07 04:44:58;;;;;;;17.80;11.20;;;;;;;-145.18;100.00;46656.50;5021312;28;20034;-65
2023/09/07 04:47:24;;;;;;;20.00;11.57;;;;;;;-145.18;100.00;46656.50;5043734;28;20053;-65
2023/09/07 04:49:50;;;;;;;17.13;11.53;;;;;;;-145.18;100.00;46654.53;5030852;28;20076;-65
2023/09/07 04:52:16;;;;;;;18.53;11.47;;;;;;;-145.18;100.00;46652.59;5023364;28;20025;-66
2023/09/07 04:54:41;;;;;;;16.73;11.70;;;;;;;-145.18;100.00;46652.59;5020179;28;20102;-66
2023/09/07 04:57:06;;;;;;;22.33;12.30;;;;;;;-145.18;100.00;46654.53;5025378;28;20053;-66
2023/09/07 04:59:32;;;;;;;18.23;11.03;;;;;;;-145.18;100.00;46656.50;5021908;28;20073;-65
2023/09/07 05:02:00;;;;;;;16.63;11.80;;;;;;;-145.18;100.00;46656.50;5024949;28;20030;-65
2023/09/07 05:04:25;;;;;;;16.13;10.57;;;;;;;-145.18;100.00;46650.63;5021897;28;20034;-66
2023/09/07 05:06:51;;;;;;;14.97;10.53;;;;;;;-145.18;100.00;46652.59;5025925;28;20044;-65
2023/09/07 05:09:16;;;;;;;17.40;11.70;;;;;;;-145.18;100.00;46652.59;5043204;28;20029;-65
2023/09/07 05:11:41;;;;;;;15.53;10.77;;;;;;;-145.18;100.00;46654.53;5044614;28;20649;-65
2023/09/07 05:14:07;;;;;;;19.63;12.27;;;;;;;-145.18;100.00;46656.50;5029753;28;20026;-65
2023/09/07 05:16:32;;;;;;;25.23;11.93;;;;;;;-145.18;100.00;46654.53;5029730;28;20029;-66
2023/09/07 05:18:58;;;;;;;20.83;11.43;;;;;;;-145.18;100.00;46656.50;5027742;28;20065;-66
2023/09/07 05:21:23;;;;;;;18.70;12.03;;;;;;;-145.18;100.00;46658.44;5034204;28;20158;-65
2023/09/07 05:23:48;;;;;;;15.63;11.00;;;;;;;-145.18;100.00;46650.63;5016434;28;20056;-65
2023/09/07 05:26:14;;;;;;;19.10;12.07;;;;;;;-145.18;100.00;46654.53;5024729;28;20068;-65
2023/09/07 05:28:42;;;;;;;18.27;11.80;;;;;;;-145.18;100.00;46652.59;5017119;28;20025;-65
2023/09/07 05:31:08;;;;;;;18.77;12.27;;;;;;;-145.18;100.00;46656.50;5020610;28;20029;-66
2023/09/07 05:33:33;;;;;;;19.07;11.63;;;;;;;-145.18;100.00;46652.59;5025277;28;20080;-66
2023/09/07 05:35:59;;;;;;;18.00;11.07;;;;;;;-145.18;100.00;46654.53;5020339;28;20025;-65
2023/09/07 05:38:24;;;;;;;17.90;11.17;;;;;;;-145.18;100.00;46658.44;5028790;28;20149;-66
2023/09/07 05:40:53;;;;;;;21.50;12.40;;;;;;;-145.18;100.00;46658.44;5027573;28;20068;-65
2023/09/07 05:43:19;;;;;;;14.60;10.53;;;;;;;-145.18;100.00;46658.44;5027440;28;20037;-66
2023/09/07 05:45:44;;;;;;;16.43;10.83;;;;;;;-145.18;100.00;46660.41;5028532;28;20026;-65
2023/09/07 05:48:10;;;;;;;17.47;11.23;;;;;;;-145.18;100.00;46654.53;5021767;28;20371;-65
2023/09/07 05:50:37;;;;;;;19.47;10.63;;;;;;;-145.18;100.00;46658.44;5023979;28;20025;-66
2023/09/07 05:53:03;;;;;;;19.60;11.60;;;;;;;-145.18;100.00;46654.53;5021881;28;20029;-65
2023/09/07 05:55:30;;;;;;;18.70;11.80;;;;;;;-145.18;100.00;46658.44;5014177;28;20030;-66
2023/09/07 05:57:55;;;;;;;14.50;10.63;;;;;;;-145.18;100.00;46658.44;5020753;28;21502;-66
2023/09/07 06:00:22;;;;;;;18.00;11.87;;;;;;;-145.18;100.00;46658.44;5021236;28;20051;-66
2023/09/07 06:02:47;;;;;;;15.27;11.00;;;;;;;-145.18;100.00;46656.50;5027404;28;20037;-66
2023/09/07 06:05:13;;;;;;;19.23;11.00;;;;;;;-145.18;100.00;46652.59;5029510;28;20032;-66
2023/09/07 06:07:38;;;;;;;21.87;11.83;;;;;;;-145.18;100.00;46656.50;5026715;28;20033;-66
2023/09/07 06:10:05;;;;;;;23.27;11.63;;;;;;;-145.18;100.00;46652.59;5031123;28;20039;-66
2023/09/07 06:12:34;;;;;;;18.73;12.53;;;;;;;-145.18;100.00;46658.44;5030896;28;20025;-66
2023/09/07 06:15:00;;;;;;;18.63;13.03;;;;;;;-145.18;100.00;46652.59;5032256;28;20159;-66
2023/09/07 06:17:27;;;;;;;19.87;12.20;;;;;;;-145.18;100.00;46650.63;5030769;28;20433;-66
2023/09/07 06:19:58;;;;;;;18.17;12.38;;;;;;;-145.18;100.00;46654.53;5117711;27;20381;-64
2023/09/07 06:22:24;;;;;;;18.17;11.50;;;;;;;-145.18;100.00;46652.59;5108302;28;20410;-64
2023/09/07 06:24:49;;;;;;;19.23;10.87;;;;;;;-145.18;100.00;46658.44;5109862;28;20114;-64
2023/09/07 06:27:15;;;;;;;18.47;11.83;;;;;;;-145.18;100.00;46658.44;5103644;28;20024;-64
2023/09/07 06:29:40;;;;;;;20.03;12.60;;;;;;;-145.18;100.00;46658.44;5089821;28;20475;-64
2023/09/07 06:32:05;;;;;;;15.37;11.67;;;;;;;-145.18;100.00;46656.50;5093229;28;20075;-64
2023/09/07 06:34:31;;;;;;;19.13;11.03;;;;;;;-145.18;100.00;46658.44;5100129;28;20479;-64
2023/09/07 06:36:56;;;;;;;15.67;11.20;;;;;;;-145.18;100.00;46654.53;5105233;28;20028;-64
2023/09/07 06:39:22;;;;;;;21.27;11.63;;;;;;;-145.18;100.00;46660.41;5099460;28;20077;-59
2023/09/07 06:41:47;;;;;;;18.37;12.13;;;;;;;-145.18;100.00;46660.41;5113189;28;20028;-60
2023/09/07 06:44:13;;;;;;;17.23;11.30;;;;;;;-145.18;100.00;46660.41;5107995;27;21351;-59
2023/09/07 06:46:39;;;;;;;19.40;12.00;;;;;;;-145.18;100.00;46658.44;5099120;28;20032;-60
2023/09/07 06:49:04;;;;;;;18.67;11.70;;;;;;;-145.18;100.00;46660.41;5108731;28;20033;-59
2023/09/07 06:51:31;;;;;;;18.87;10.67;;;;;;;-145.18;100.00;46625.22;5106929;28;20028;-60
2023/09/07 06:53:56;;;;;;;20.37;12.43;;;;;;;-145.18;100.00;46623.28;5105713;28;20054;-59
2023/09/07 06:56:22;;;;;;;17.60;11.83;;;;;;;-145.18;100.00;46623.28;5110281;28;20466;-60
2023/09/07 06:58:48;;;;;;;19.90;11.97;;;;;;;-145.18;100.00;46625.22;5109834;27;20043;-59
2023/09/07 07:01:13;;;;;;;17.00;11.53;;;;;;;-145.18;100.00;46627.19;5104692;28;20439;-59
2023/09/07 07:03:38;;;;;;;17.20;11.47;;;;;;;-145.18;100.00;46623.28;5105787;28;20028;-60
2023/09/07 07:06:04;;;;;;;18.23;12.13;;;;;;;-145.18;100.00;46625.22;5104667;28;20028;-60
2023/09/07 07:08:29;;;;;;;20.57;11.30;;;;;;;-145.18;100.00;46623.28;5102117;28;20476;-60
2023/09/07 07:10:55;;;;;;;17.10;12.20;;;;;;;-145.18;100.00;46631.09;5103880;28;20046;-60
2023/09/07 07:13:20;;;;;;;18.70;11.80;;;;;;;-145.18;100.00;46629.13;5102322;28;20195;-60
2023/09/07 07:15:46;;;;;;;14.07;11.17;;;;;;;-145.18;100.00;46623.28;5102214;28;20387;-60
2023/09/07 07:18:11;;;;;;;16.63;11.83;;;;;;;-145.18;100.00;46621.31;5102836;28;20071;-59
2023/09/07 07:20:42;;;;;;;15.43;11.50;;;;;;;-145.18;100.00;46627.19;5105207;28;20031;-60
2023/09/07 07:23:07;;;;;;;23.90;12.80;;;;;;;-145.18;100.00;46627.19;5104154;28;20091;-59
2023/09/07 07:25:33;;;;;;;16.30;11.83;;;;;;;-145.18;100.00;46629.13;5101888;28;20116;-60
2023/09/07 07:28:00;;;;;;;21.13;12.33;;;;;;;-145.18;100.00;46627.19;5103334;28;20051;-60
2023/09/07 07:30:31;;;;;;;15.60;11.47;;;;;;;-145.18;100.00;46631.09;5097405;28;20064;-60
2023/09/07 07:32:57;;;;;;;17.80;11.67;;;;;;;-145.18;100.00;46627.19;5089647;28;20067;-60
2023/09/07 07:35:22;;;;;;;14.57;11.47;;;;;;;-145.18;100.00;46629.13;5088142;28;20063;-60
2023/09/07 07:37:49;;;;;;;17.03;10.97;;;;;;;-145.18;100.00;46629.13;5086114;28;20032;-59
2023/09/07 07:40:15;;;;;;;15.17;11.43;;;;;;;-145.18;100.00;46631.09;5086441;28;20024;-60
2023/09/07 07:42:40;;;;;;;16.20;11.70;;;;;;;-145.18;100.00;46631.09;5082643;28;20039;-59
2023/09/07 07:45:06;;;;;;;17.00;10.20;;;;;;;-145.18;100.00;46633.06;5085143;28;20498;-60
2023/09/07 07:47:31;;;;;;;16.40;11.50;;;;;;;-145.18;100.00;46635.00;5087686;28;20122;-64
2023/09/07 07:49:57;;;;;;;15.50;11.17;;;;;;;-145.18;100.00;46629.13;5085576;28;20061;-65
2023/09/07 07:52:22;;;;;;;18.73;11.77;;;;;;;-145.18;100.00;46629.13;5083158;28;20406;-64
2023/09/07 07:54:47;;;;;;;17.43;11.33;;;;;;;-145.18;100.00;46631.09;5088001;28;20027;-64
2023/09/07 07:57:13;;;;;;;15.03;10.80;;;;;;;-145.18;100.00;46638.91;5087873;28;20031;-64
2023/09/07 07:59:38;;;;;;;18.13;11.37;;;;;;;-145.18;100.00;46633.06;5087288;28;20395;-65
2023/09/07 08:02:05;;;;;;;15.37;10.60;;;;;;;-145.18;100.00;46635.00;5092914;28;20398;-65
2023/09/07 08:04:32;;;;;;;16.70;11.57;;;;;;;-145.18;100.00;46635.00;5091690;28;20034;-64
2023/09/07 08:07:03;;;;;;;15.03;11.23;;;;;;;-145.18;100.00;46635.00;5085024;28;20033;-64
2023/09/07 08:09:29;;;;;;;17.83;11.07;;;;;;;-145.18;100.00;46636.94;5081703;28;20020;-65
2023/09/07 08:11:55;;;;;;;15.33;10.53;;;;;;;-145.18;100.00;46636.94;5085641;28;20035;-65
2023/09/07 08:14:22;;;;;;;16.10;10.70;;;;;;;-145.18;100.00;46642.81;5086050;28;20032;-65
2023/09/07 08:16:47;;;;;;;13.17;10.07;;;;;;;-145.18;100.00;46640.88;5088626;28;20028;-64
2023/09/07 08:19:13;;;;;;;16.07;10.47;;;;;;;-145.18;100.00;46640.88;5090718;28;20078;-64
2023/09/07 08:21:41;;;;;;;15.77;10.70;;;;;;;-145.18;100.00;46644.78;5091685;28;20119;-65
2023/09/07 08:24:07;;;;;;;19.50;10.00;;;;;;;-145.18;100.00;46656.50;5120753;27;20024;-64
2023/09/07 08:26:33;;;;;;;14.53;10.37;;;;;;;-145.18;100.00;46656.50;5088440;28;20039;-65
2023/09/07 08:28:58;;;;;;;18.37;10.23;;;;;;;-145.18;100.00;46656.50;5105438;27;20024;-64
2023/09/07 08:31:24;;;;;;;16.33;10.77;;;;;;;-145.18;100.00;46660.41;5086230;28;20506;-65
2023/09/07 08:33:54;;;;;;;14.70;9.87;;;;;;;-145.18;100.00;46652.59;5087600;28;20118;-65
2023/09/07 08:36:22;;;;;;;21.70;10.20;;;;;;;-145.18;100.00;46652.59;5089160;28;20030;-65
2023/09/07 08:38:47;;;;;;;17.30;10.30;;;;;;;-145.18;100.00;46650.63;5084353;28;20024;-65
2023/09/07 08:41:13;;;;;;;17.43;9.87;;;;;;;-145.18;100.00;46629.13;5082156;28;20042;-64
2023/09/07 08:43:48;;;;;;;13.13;9.30;;;;;;;-145.18;100.00;46615.47;5086483;28;20377;-65
2023/09/07 08:46:17;;;;;;;11.98;9.52;;;;;;;-145.18;100.00;46623.28;5089652;28;20383;-65
2023/09/07 08:48:44;;;;;;;12.07;8.30;;;;;;;-145.18;100.00;46574.44;5091623;28;20426;-66
2023/09/07 08:51:11;;;;;;;16.30;8.20;;;;;;;-145.18;100.00;46535.38;5085643;28;20059;-65
2023/09/07 08:53:38;;;;;;;15.90;7.87;;;;;;;-145.18;100.00;46551.00;5088610;28;20028;-65
2023/09/07 08:56:06;;;;;;;9.80;7.40;;;;;;;-145.18;100.00;46558.81;5090851;28;20062;-65
2023/09/07 08:58:31;;;;;;;12.48;8.05;;;;;;;-145.18;100.00;46523.66;5091974;28;20066;-60
2023/09/07 09:00:57;;;;;;;11.23;7.63;;;;;;;-145.18;100.00;46519.75;5093055;28;20052;-60
2023/09/07 09:03:23;;;;;;;11.88;7.35;;;;;;;-145.18;100.00;46527.56;5106109;28;20091;-60
2023/09/07 09:05:51;;;;;;;11.52;7.28;;;;;;;-145.18;100.00;46525.63;5090171;28;20019;-60
2023/09/07 09:08:20;;;;;;;12.50;7.37;;;;;;;-145.18;100.00;46523.66;5091405;28;20020;-60
2023/09/07 09:10:45;;;;;;;14.90;6.70;;;;;;;-145.18;100.00;46525.63;5089728;28;20030;-61
2023/09/07 09:13:11;;;;;;;9.73;6.80;;;;;;;-145.18;100.00;46525.63;5090736;28;20036;-60
2023/09/07 09:15:36;;;;;;;11.38;6.43;;;;;;;-145.18;100.00;46523.66;5085162;28;20153;-61
2023/09/07 09:18:13;;;;;;;11.45;6.13;;;;;;;-145.18;100.00;46517.81;5098241;28;20537;-60
2023/09/07 09:20:39;;;;;;;13.52;6.15;;;;;;;-145.18;100.00;46515.84;5083796;28;20083;-60
2023/09/07 09:23:07;;;;;;;9.75;5.80;;;;;;;-145.18;100.00;46515.84;5084047;28;20055;-60
2023/09/07 09:25:32;;;;;;;10.57;5.97;;;;;;;-145.18;100.00;46494.38;5087036;28;20028;-60
2023/09/07 09:27:57;;;;;;;15.32;6.07;;;;;;;-145.18;100.00;46496.31;5082031;28;20039;-61
2023/09/07 09:30:23;;;;;;;8.52;5.95;;;;;;;-145.18;100.00;46494.38;5074028;28;20067;-61
2023/09/07 09:32:48;;;;;;;9.07;6.00;;;;;;;-145.18;100.00;46494.38;5080864;28;20476;-60
2023/09/07 09:35:17;;;;;;;10.30;6.40;;;;;;;-145.18;100.00;46492.41;5085829;28;20034;-61
2023/09/07 09:37:47;;;;;;;9.82;6.00;;;;;;;-145.18;100.00;46504.13;5079710;28;20035;-60
2023/09/07 09:40:13;;;;;;;9.57;6.05;;;;;;;-145.18;100.00;46490.47;5083651;28;20032;-60
2023/09/07 09:42:41;;;;;;;9.85;6.18;;;;;;;-145.18;100.00;46484.59;5083509;28;20049;-61
2023/09/07 09:45:08;;;;;;;9.07;5.93;;;;;;;-145.18;100.00;46488.50;5075223;28;20037;-60
2023/09/07 09:47:38;;;;;;;10.02;6.25;;;;;;;-145.18;100.00;46498.28;5091557;28;20468;-60
2023/09/07 09:50:06;;;;;;;11.25;6.25;;;;;;;-145.18;100.00;46472.88;5091823;28;20035;-61
2023/09/07 09:52:33;;;;;;;9.32;5.88;;;;;;;-145.18;100.00;46449.44;5077823;28;20031;-61
2023/09/07 09:55:00;;;;;;;8.55;6.07;;;;;;;-145.18;100.00;46586.16;5087642;28;20035;-60
2023/09/07 09:57:28;;;;;;;10.13;5.57;;;;;;;-145.18;100.00;46660.41;5082280;28;20047;-60
2023/09/07 09:59:53;;;;;;;9.45;6.20;;;;;;;-145.18;100.00;46511.94;5080143;28;20029;-60
2023/09/07 10:02:19;;;;;;;9.75;5.90;;;;;;;-145.18;100.00;46961.22;5076768;28;20499;-61
2023/09/07 10:04:45;;;;;;;13.35;6.30;;;;;;;-145.18;100.00;47033.50;5084221;28;20036;-60
2023/09/07 10:07:11;;;;;;;8.73;6.25;;;;;;;-145.18;100.00;47045.22;5078392;28;20040;-60
2023/09/07 10:09:38;;;;;;;10.30;5.55;;;;;;;-145.18;100.00;46988.56;5076104;28;20050;-65
2023/09/07 10:12:07;;;;;;;12.60;5.75;;;;;;;-145.18;100.00;46947.53;5078655;28;20082;-65
2023/09/07 10:14:44;;;;;;;12.18;5.95;;;;;;;-145.18;100.00;46998.34;5081788;28;20042;-65
2023/09/07 10:17:21;;;;;;;8.18;5.75;;;;;;;-145.18;100.00;47033.50;5076589;28;20036;-65
2023/09/07 10:19:51;;;;;;;9.10;5.95;;;;;;;-145.18;100.00;47017.88;5088977;28;20449;-65
2023/09/07 10:22:22;;;;;;;7.95;6.63;;;;;;;-145.18;100.00;47060.84;5088246;28;20031;-65
2023/09/07 10:24:57;;;;;;;8.70;5.47;;;;;;;-145.18;100.00;47062.81;5081927;28;20602;-65
2023/09/07 10:27:23;;;;;;;9.48;5.70;;;;;;;-145.18;100.00;47027.63;5086999;28;20025;-65
2023/09/07 10:29:55;;;;;;;7.80;5.68;;;;;;;-145.18;100.00;47006.16;5078986;28;20032;-65
2023/09/07 10:32:20;;;;;;;10.32;5.85;;;;;;;-145.18;100.00;46980.75;5084974;28;20020;-65
2023/09/07 10:34:46;;;;;;;8.10;6.05;;;;;;;-145.18;100.00;47000.28;5079994;28;20027;-66
2023/09/07 10:37:14;;;;;;;7.32;6.18;;;;;;;-145.18;100.00;46963.19;5079076;28;20043;-65
2023/09/07 10:39:43;;;;;;;8.45;5.82;;;;;;;-145.18;91.84;46941.69;5086955;28;20036;-65
2023/09/07 10:42:08;;;;;;;8.20;6.20;;;;;;;-145.18;66.82;46935.81;5082737;28;20081;-65
2023/09/07 10:44:33;;;;;;;10.63;5.30;;;;;;;-145.18;100.00;46978.81;5075959;28;20036;-65
2023/09/07 10:47:00;;;;;;;8.52;5.95;;;;;;;-145.18;62.66;46945.59;5084756;28;20035;-65
2023/09/07 10:49:25;;;;;;;8.02;5.30;;;;;;;-145.18;70.94;46937.78;5077298;28;20016;-65
2023/09/07 10:51:51;;;;;;;16.95;4.65;;;;;;;-145.18;62.65;46939.72;5078419;28;20037;-66